createdAt,value
2022-12-29T00:00:22.274Z,8.44
2022-12-29T00:03:11.643Z,8.50
2022-12-29T00:05:42.703Z,8.65
2022-12-29T00:08:11.918Z,8.72
2022-12-29T00:10:41.527Z,8.83
2022-12-29T00:13:27.752Z,8.83
2022-12-29T00:15:57.413Z,8.85
2022-12-29T00:18:26.641Z,8.57
2022-12-29T00:21:15.910Z,8.52
2022-12-29T00:24:04.270Z,8.75
2022-12-29T00:26:51.319Z,8.63
2022-12-29T00:29:37.674Z,8.82
2022-12-29T00:32:26.528Z,8.85
2022-12-29T00:35:10.808Z,8.87
2022-12-29T00:38:00.041Z,8.72
2022-12-29T00:40:46.379Z,8.85
2022-12-29T00:43:33.296Z,8.84
2022-12-29T00:46:02.514Z,8.88
2022-12-29T00:48:49.280Z,8.87
2022-12-29T00:51:18.500Z,8.88
2022-12-29T00:53:49.570Z,8.88
2022-12-29T00:56:18.814Z,8.84
2022-12-29T00:58:48.375Z,8.87
2022-12-29T01:01:17.728Z,8.84
2022-12-29T01:03:47.717Z,8.69
2022-12-29T01:06:16.986Z,8.78
2022-12-29T01:09:09.463Z,8.83
2022-12-29T01:11:38.668Z,8.82
2022-12-29T01:14:08.535Z,8.76
2022-12-29T01:16:38.379Z,8.80
2022-12-29T01:19:07.973Z,8.83
2022-12-29T01:21:37.247Z,8.85
2022-12-29T01:24:08.560Z,8.79
2022-12-29T01:26:37.770Z,8.84
2022-12-29T01:29:07.391Z,8.85
2022-12-29T01:31:39.681Z,8.86
2022-12-29T01:34:09.342Z,8.82
2022-12-29T01:36:38.584Z,8.82
2022-12-29T01:39:09.679Z,8.83
2022-12-29T01:41:38.909Z,8.82
2022-12-29T01:44:23.206Z,8.84
2022-12-29T01:46:52.456Z,8.80
2022-12-29T01:49:22.525Z,8.85
2022-12-29T01:51:52.642Z,8.81
2022-12-29T01:54:24.854Z,8.82
2022-12-29T01:56:54.071Z,8.81
2022-12-29T01:59:25.387Z,8.79
2022-12-29T02:01:54.813Z,8.79
2022-12-29T02:04:24.439Z,8.75
2022-12-29T02:06:55.060Z,8.74
2022-12-29T02:09:26.074Z,8.76
2022-12-29T02:11:55.320Z,8.76
2022-12-29T02:14:24.873Z,8.78
2022-12-29T02:16:58.693Z,8.74
2022-12-29T02:19:45.989Z,8.76
2022-12-29T02:22:18.367Z,8.73
2022-12-29T02:25:05.514Z,8.74
2022-12-29T02:27:55.625Z,8.72
2022-12-29T02:30:40.338Z,8.68
2022-12-29T02:33:11.159Z,8.69
2022-12-29T02:35:43.776Z,8.68
2022-12-29T02:38:16.202Z,8.70
2022-12-29T02:40:46.015Z,8.66
2022-12-29T02:43:18.028Z,8.65
2022-12-29T02:45:50.540Z,8.69
2022-12-29T02:48:20.784Z,8.66
2022-12-29T02:50:51.299Z,8.66
2022-12-29T02:53:41.375Z,8.68
2022-12-29T02:56:10.905Z,8.68
2022-12-29T02:58:40.171Z,8.68
2022-12-29T03:01:18.646Z,8.67
2022-12-29T03:03:50.955Z,8.66
2022-12-29T03:06:25.107Z,8.69
2022-12-29T03:08:56.051Z,8.65
2022-12-29T03:11:42.992Z,8.65
2022-12-29T03:14:31.379Z,8.65
2022-12-29T03:17:03.077Z,8.63
2022-12-29T03:19:33.137Z,8.66
2022-12-29T03:22:36.231Z,8.66
2022-12-29T03:25:06.380Z,8.64
2022-12-29T03:27:36.949Z,8.65
2022-12-29T03:30:06.922Z,8.64
2022-12-29T03:32:40.024Z,8.62
2022-12-29T03:35:09.783Z,8.63
2022-12-29T03:37:40.680Z,8.62
2022-12-29T03:40:10.284Z,8.60
2022-12-29T03:42:39.865Z,8.61
2022-12-29T03:45:09.822Z,8.59
2022-12-29T03:47:40.837Z,8.54
2022-12-29T03:50:10.700Z,8.58
2022-12-29T03:52:40.202Z,8.61
2022-12-29T03:55:09.828Z,8.57
2022-12-29T03:57:39.454Z,8.57
2022-12-29T04:00:09.230Z,8.56
2022-12-29T04:02:39.054Z,8.55
2022-12-29T04:05:10.399Z,8.54
2022-12-29T04:07:39.912Z,8.53
2022-12-29T04:10:09.432Z,8.54
2022-12-29T04:12:38.991Z,8.54
2022-12-29T04:15:08.732Z,8.36
2022-12-29T04:17:38.267Z,8.44
2022-12-29T04:20:25.504Z,8.48
2022-12-29T04:23:01.362Z,8.46
2022-12-29T04:25:30.645Z,8.44
2022-12-29T04:28:00.187Z,8.44
2022-12-29T04:30:29.353Z,8.38
2022-12-29T04:32:58.952Z,8.34
2022-12-29T04:35:28.232Z,8.39
2022-12-29T04:37:57.817Z,8.36
2022-12-29T04:40:28.535Z,8.44
2022-12-29T04:42:58.166Z,8.40
2022-12-29T04:45:27.427Z,8.38
2022-12-29T04:47:57.018Z,8.43
2022-12-29T04:50:26.182Z,8.40
2022-12-29T04:52:55.745Z,8.40
2022-12-29T04:55:25.061Z,8.46
2022-12-29T04:57:57.272Z,8.46
2022-12-29T05:00:26.551Z,8.46
2022-12-29T05:02:56.294Z,8.46
2022-12-29T05:05:25.649Z,8.47
2022-12-29T05:07:55.372Z,8.46
2022-12-29T05:10:24.722Z,8.39
2022-12-29T05:12:55.789Z,8.43
2022-12-29T05:15:25.077Z,8.42
2022-12-29T05:17:54.773Z,8.46
2022-12-29T05:20:24.022Z,8.49
2022-12-29T05:22:53.656Z,8.49
2022-12-29T05:25:22.906Z,8.48
2022-12-29T05:27:52.540Z,8.54
2022-12-29T05:30:23.241Z,8.52
2022-12-29T05:32:52.861Z,8.52
2022-12-29T05:35:22.086Z,8.50
2022-12-29T05:37:51.683Z,8.49
2022-12-29T05:40:20.890Z,8.50
2022-12-29T05:42:50.529Z,8.49
2022-12-29T05:45:19.704Z,8.52
2022-12-29T05:47:50.731Z,8.54
2022-12-29T05:50:19.902Z,8.39
2022-12-29T05:52:49.566Z,8.47
2022-12-29T05:55:18.782Z,8.50
2022-12-29T05:57:48.501Z,8.36
2022-12-29T06:00:18.060Z,8.45
2022-12-29T06:02:47.885Z,8.37
2022-12-29T06:05:18.975Z,8.36
2022-12-29T06:07:48.575Z,8.38
2022-12-29T06:10:17.843Z,8.47
2022-12-29T06:12:47.539Z,8.49
2022-12-29T06:15:16.946Z,8.49
2022-12-29T06:17:47.425Z,8.47
2022-12-29T06:20:16.699Z,8.50
2022-12-29T06:22:48.789Z,8.51
2022-12-29T06:25:18.325Z,8.53
2022-12-29T06:27:48.067Z,8.55
2022-12-29T06:30:18.109Z,8.49
2022-12-29T06:32:48.218Z,8.53
2022-12-29T06:35:17.627Z,8.57
2022-12-29T06:37:48.747Z,8.57
2022-12-29T06:40:18.062Z,8.36
2022-12-29T06:42:47.647Z,8.49
2022-12-29T06:45:16.881Z,8.46
2022-12-29T06:47:47.090Z,8.54
2022-12-29T06:50:16.460Z,8.56
2022-12-29T06:52:46.970Z,8.52
2022-12-29T06:55:17.703Z,8.51
2022-12-29T06:57:47.414Z,8.46
2022-12-29T07:00:22.467Z,8.30
2022-12-29T07:02:52.765Z,8.32
2022-12-29T07:05:22.128Z,8.24
2022-12-29T07:07:51.787Z,8.40
2022-12-29T07:10:22.499Z,8.46
2022-12-29T07:12:52.149Z,8.51
2022-12-29T07:15:21.447Z,8.57
2022-12-29T07:17:51.879Z,8.27
2022-12-29T07:20:26.526Z,8.21
2022-12-29T07:22:56.871Z,8.33
2022-12-29T07:25:27.526Z,8.36
2022-12-29T07:27:57.192Z,8.47
2022-12-29T07:30:26.489Z,8.54
2022-12-29T07:32:56.208Z,8.60
2022-12-29T07:35:25.517Z,8.42
2022-12-29T07:37:55.087Z,8.43
2022-12-29T07:40:24.341Z,8.43
2022-12-29T07:42:55.498Z,8.30
2022-12-29T07:45:24.793Z,8.47
2022-12-29T07:47:54.529Z,8.29
2022-12-29T07:50:23.724Z,8.25
2022-12-29T07:52:53.559Z,8.39
2022-12-29T07:55:22.779Z,8.45
2022-12-29T07:57:56.595Z,8.57
2022-12-29T08:00:25.908Z,8.63
2022-12-29T08:02:55.462Z,8.54
2022-12-29T08:05:24.782Z,8.55
2022-12-29T08:07:54.369Z,8.57
2022-12-29T08:10:23.607Z,8.66
2022-12-29T08:12:53.690Z,8.66
2022-12-29T08:15:28.730Z,8.69
2022-12-29T08:18:01.918Z,8.74
2022-12-29T08:20:31.207Z,8.77
2022-12-29T08:23:00.808Z,8.63
2022-12-29T08:25:30.056Z,8.57
2022-12-29T08:27:59.628Z,8.65
2022-12-29T08:30:30.406Z,8.82
2022-12-29T08:32:59.908Z,8.69
2022-12-29T08:35:29.210Z,8.52
2022-12-29T08:37:58.871Z,8.71
2022-12-29T08:40:28.094Z,8.68
2022-12-29T08:42:57.620Z,8.70
2022-12-29T08:45:26.854Z,8.84
2022-12-29T08:47:57.929Z,8.72
2022-12-29T08:50:27.174Z,8.50
2022-12-29T08:52:56.753Z,8.64
2022-12-29T08:55:25.985Z,8.82
2022-12-29T08:57:55.541Z,8.63
2022-12-29T09:00:24.806Z,8.78
2022-12-29T09:02:54.630Z,8.86
2022-12-29T09:05:25.474Z,8.56
2022-12-29T09:07:55.486Z,8.72
2022-12-29T09:10:24.785Z,8.73
2022-12-29T09:12:54.355Z,8.70
2022-12-29T09:15:23.652Z,8.85
2022-12-29T09:17:53.251Z,8.96
2022-12-29T09:20:22.606Z,8.91
2022-12-29T09:22:53.581Z,8.90
2022-12-29T09:25:25.314Z,8.76
2022-12-29T09:27:55.014Z,8.89
2022-12-29T09:30:24.703Z,8.80
2022-12-29T09:32:55.580Z,8.83
2022-12-29T09:35:24.877Z,9.00
2022-12-29T09:37:55.868Z,9.05
2022-12-29T09:40:27.427Z,9.05
2022-12-29T09:43:01.921Z,9.20
2022-12-29T09:45:31.931Z,9.35
2022-12-29T09:48:05.344Z,9.38
2022-12-29T09:50:37.800Z,9.41
2022-12-29T09:53:10.591Z,9.51
2022-12-29T09:55:40.858Z,9.48
2022-12-29T09:58:13.622Z,9.42
2022-12-29T10:00:43.779Z,9.57
2022-12-29T10:03:15.483Z,9.44
2022-12-29T10:05:46.648Z,9.31
2022-12-29T10:08:23.798Z,9.48
2022-12-29T10:10:56.087Z,9.44
2022-12-29T10:13:29.076Z,9.56
2022-12-29T10:16:00.949Z,9.45
2022-12-29T10:18:43.910Z,9.43
2022-12-29T10:21:16.101Z,9.63
2022-12-29T10:23:47.739Z,9.38
2022-12-29T10:26:17.800Z,9.39
2022-12-29T10:28:48.253Z,9.37
2022-12-29T10:31:21.192Z,9.62
2022-12-29T10:33:52.298Z,9.82
2022-12-29T10:36:23.063Z,9.54
2022-12-29T10:38:56.698Z,9.51
2022-12-29T10:41:27.510Z,9.57
2022-12-29T10:43:57.534Z,9.59
2022-12-29T10:46:27.583Z,9.66
2022-12-29T10:48:57.171Z,9.66
2022-12-29T10:51:29.046Z,9.67
2022-12-29T10:54:00.558Z,9.90
2022-12-29T10:56:31.462Z,10.02
2022-12-29T10:59:02.228Z,9.94
2022-12-29T11:01:33.519Z,10.06
2022-12-29T11:04:05.608Z,10.04
2022-12-29T11:06:35.163Z,9.99
2022-12-29T11:09:11.059Z,9.91
2022-12-29T11:11:40.361Z,10.09
2022-12-29T11:14:13.944Z,10.33
2022-12-29T11:16:45.390Z,10.42
2022-12-29T11:19:24.758Z,10.34
2022-12-29T11:21:54.081Z,10.38
2022-12-29T11:24:26.138Z,10.15
2022-12-29T11:26:58.558Z,10.31
2022-12-29T11:29:29.484Z,10.43
2022-12-29T11:32:28.439Z,10.25
2022-12-29T11:35:02.806Z,10.29
2022-12-29T11:37:34.996Z,10.51
2022-12-29T11:40:06.593Z,10.26
2022-12-29T11:42:36.749Z,10.32
2022-12-29T11:45:10.942Z,10.42
2022-12-29T11:47:40.562Z,10.43
2022-12-29T11:50:10.540Z,10.57
2022-12-29T11:52:40.716Z,10.57
2022-12-29T11:55:18.905Z,10.45
2022-12-29T11:57:48.201Z,10.49
2022-12-29T12:00:18.417Z,10.58
2022-12-29T12:02:51.220Z,10.59
2022-12-29T12:05:35.708Z,10.69
2022-12-29T12:08:06.736Z,10.54
2022-12-29T12:10:43.478Z,10.40
2022-12-29T12:13:23.633Z,10.40
2022-12-29T12:15:57.056Z,10.39
2022-12-29T12:18:37.075Z,10.49
2022-12-29T12:21:12.481Z,10.48
2022-12-29T12:23:44.770Z,10.35
2022-12-29T12:26:16.352Z,10.42
2022-12-29T12:28:48.935Z,10.47
2022-12-29T12:31:20.326Z,10.50
2022-12-29T12:33:50.232Z,10.49
2022-12-29T12:36:23.643Z,10.42
2022-12-29T12:38:55.763Z,10.33
2022-12-29T12:41:30.590Z,10.33
2022-12-29T12:44:01.485Z,10.48
2022-12-29T12:46:54.986Z,10.55
2022-12-29T12:49:28.777Z,10.55
2022-12-29T12:52:05.251Z,10.53
2022-12-29T12:54:42.000Z,10.69
2022-12-29T12:57:15.404Z,10.74
2022-12-29T12:59:55.380Z,10.74
2022-12-29T13:02:31.095Z,10.77
2022-12-29T13:05:05.597Z,10.64
2022-12-29T13:07:38.089Z,10.45
2022-12-29T13:10:18.543Z,10.61
2022-12-29T13:12:51.018Z,10.66
2022-12-29T13:15:23.590Z,10.64
2022-12-29T13:17:54.278Z,10.52
2022-12-29T13:20:28.256Z,10.70
2022-12-29T13:22:59.193Z,10.60
2022-12-29T13:25:31.938Z,10.52
2022-12-29T13:28:06.022Z,10.49
2022-12-29T13:30:37.137Z,10.65
2022-12-29T13:33:08.342Z,10.79
2022-12-29T13:35:44.593Z,10.89
2022-12-29T13:38:15.679Z,10.62
2022-12-29T13:40:48.379Z,10.59
2022-12-29T13:43:19.372Z,10.78
2022-12-29T13:45:48.640Z,10.79
2022-12-29T13:48:19.036Z,10.72
2022-12-29T13:50:51.384Z,10.67
2022-12-29T13:53:22.440Z,10.82
2022-12-29T13:55:52.259Z,10.86
2022-12-29T13:58:26.894Z,10.89
2022-12-29T14:00:58.004Z,10.83
2022-12-29T14:03:37.420Z,10.94
2022-12-29T14:06:08.268Z,10.99
2022-12-29T14:08:37.877Z,10.93
2022-12-29T14:11:08.617Z,11.00
2022-12-29T14:13:41.991Z,11.00
2022-12-29T14:16:11.856Z,10.96
2022-12-29T14:18:44.485Z,10.99
2022-12-29T14:21:20.139Z,11.02
2022-12-29T14:23:50.177Z,10.96
2022-12-29T14:26:20.365Z,10.98
2022-12-29T14:28:51.691Z,10.95
2022-12-29T14:31:41.809Z,10.96
2022-12-29T14:34:32.532Z,10.96
2022-12-29T14:37:01.837Z,10.93
2022-12-29T14:39:35.555Z,10.86
2022-12-29T14:42:06.123Z,10.85
2022-12-29T14:44:37.080Z,10.89
2022-12-29T14:47:07.713Z,10.88
2022-12-29T14:49:42.242Z,10.88
2022-12-29T14:52:16.215Z,10.85
2022-12-29T14:54:52.851Z,10.81
2022-12-29T14:57:27.817Z,10.77
2022-12-29T14:59:59.981Z,10.73
2022-12-29T15:02:30.490Z,10.74
2022-12-29T15:05:01.089Z,10.71
2022-12-29T15:07:30.381Z,10.71
2022-12-29T15:10:01.309Z,10.70
2022-12-29T15:12:33.428Z,10.66
2022-12-29T15:15:05.723Z,10.65
2022-12-29T15:17:35.588Z,10.69
2022-12-29T15:20:16.619Z,10.68
2022-12-29T15:22:46.917Z,10.65
2022-12-29T15:25:17.596Z,10.67
2022-12-29T15:27:50.658Z,10.65
2022-12-29T15:30:21.986Z,10.66
2022-12-29T15:32:51.926Z,10.58
2022-12-29T15:35:25.357Z,10.62
2022-12-29T15:37:54.667Z,10.57
2022-12-29T15:40:26.183Z,10.56
2022-12-29T15:42:58.763Z,10.56
2022-12-29T15:45:30.224Z,10.57
2022-12-29T15:47:59.546Z,10.56
2022-12-29T15:50:29.936Z,10.56
2022-12-29T15:52:59.279Z,10.54
2022-12-29T15:55:29.968Z,10.53
2022-12-29T15:57:59.794Z,10.53
2022-12-29T16:00:32.193Z,10.52
2022-12-29T16:03:02.015Z,10.52
2022-12-29T16:05:35.729Z,10.53
2022-12-29T16:08:05.326Z,10.52
2022-12-29T16:10:38.143Z,10.53
2022-12-29T16:13:07.814Z,10.54
2022-12-29T16:15:38.835Z,10.54
2022-12-29T16:18:08.105Z,10.53
2022-12-29T16:20:41.167Z,10.53
2022-12-29T16:23:12.653Z,10.52
2022-12-29T16:25:42.190Z,10.53
2022-12-29T16:28:16.878Z,10.53
2022-12-29T16:30:48.015Z,10.50
2022-12-29T16:33:32.270Z,10.50
2022-12-29T16:36:01.884Z,10.50
2022-12-29T16:38:33.706Z,10.48
2022-12-29T16:41:04.300Z,10.47
2022-12-29T16:43:35.721Z,10.38
2022-12-29T16:46:29.684Z,10.17
2022-12-29T16:48:59.343Z,9.81
2022-12-29T16:51:32.935Z,9.97
2022-12-29T16:54:02.487Z,9.74
2022-12-29T16:56:32.537Z,9.78
2022-12-29T16:59:04.026Z,9.81
2022-12-29T17:01:36.866Z,9.79
2022-12-29T17:04:07.452Z,9.88
2022-12-29T17:06:37.019Z,9.88
2022-12-29T17:09:15.946Z,9.91
2022-12-29T17:12:04.968Z,9.87
2022-12-29T17:14:41.511Z,9.91
2022-12-29T17:17:17.126Z,9.90
2022-12-29T17:19:47.575Z,9.84
2022-12-29T17:22:18.538Z,10.03
2022-12-29T17:24:47.875Z,9.97
2022-12-29T17:27:22.041Z,10.11
2022-12-29T17:29:51.374Z,10.31
2022-12-29T17:32:22.332Z,9.94
2022-12-29T17:34:51.617Z,10.08
2022-12-29T17:37:31.322Z,10.11
2022-12-29T17:40:00.631Z,10.43
2022-12-29T17:42:30.397Z,10.46
2022-12-29T17:44:59.613Z,10.35
2022-12-29T17:47:30.629Z,10.28
2022-12-29T17:49:59.809Z,10.50
2022-12-29T17:52:29.596Z,10.33
2022-12-29T17:54:58.860Z,10.34
2022-12-29T17:57:28.566Z,10.30
2022-12-29T17:59:57.972Z,10.25
2022-12-29T18:02:29.477Z,10.39
2022-12-29T18:05:00.592Z,10.19
2022-12-29T18:07:35.642Z,10.16
2022-12-29T18:10:05.694Z,10.27
2022-12-29T18:12:37.034Z,10.43
2022-12-29T18:15:07.075Z,10.48
2022-12-29T18:17:36.417Z,10.53
2022-12-29T18:20:09.160Z,10.57
2022-12-29T18:22:38.440Z,10.60
2022-12-29T18:25:14.765Z,10.54
2022-12-29T18:27:44.072Z,10.52
2022-12-29T18:30:13.856Z,10.50
2022-12-29T18:32:43.119Z,10.50
2022-12-29T18:35:16.094Z,10.43
2022-12-29T18:37:45.443Z,10.37
2022-12-29T18:40:15.096Z,10.36
2022-12-29T18:42:44.385Z,10.38
2022-12-29T18:45:16.460Z,10.47
2022-12-29T18:47:46.238Z,10.40
2022-12-29T18:50:17.611Z,10.46
2022-12-29T18:52:47.302Z,10.29
2022-12-29T18:55:17.692Z,10.27
2022-12-29T18:57:46.911Z,10.21
2022-12-29T19:00:17.144Z,10.29
2022-12-29T19:02:46.612Z,10.37
2022-12-29T19:05:24.243Z,10.30
2022-12-29T19:07:53.819Z,10.28
2022-12-29T19:10:23.824Z,10.21
2022-12-29T19:12:53.496Z,10.23
2022-12-29T19:15:24.155Z,9.99
2022-12-29T19:18:32.432Z,9.82
2022-12-29T19:20:44.911Z,9.89
2022-12-29T19:23:14.947Z,10.06
2022-12-29T19:25:44.681Z,10.10
2022-12-29T19:28:17.197Z,10.11
2022-12-29T19:30:51.655Z,9.99
2022-12-29T19:33:21.985Z,10.09
2022-12-29T19:35:53.265Z,10.21
2022-12-29T19:38:22.522Z,9.94
2022-12-29T19:40:52.322Z,10.10
2022-12-29T19:43:21.648Z,10.12
2022-12-29T19:45:51.530Z,10.18
2022-12-29T19:48:21.467Z,10.14
2022-12-29T19:50:52.566Z,10.26
2022-12-29T19:53:23.013Z,10.14
2022-12-29T19:55:52.650Z,10.27
2022-12-29T19:58:21.934Z,10.27
2022-12-29T20:00:51.883Z,10.18
2022-12-29T20:03:21.229Z,10.06
2022-12-29T20:05:52.698Z,10.08
2022-12-29T20:08:22.088Z,9.96
2022-12-29T20:10:58.065Z,10.07
2022-12-29T20:13:27.573Z,10.04
2022-12-29T20:16:00.705Z,10.11
2022-12-29T20:18:30.252Z,10.10
2022-12-29T20:21:04.404Z,10.16
2022-12-29T20:23:33.956Z,10.17
2022-12-29T20:26:03.651Z,10.15
2022-12-29T20:28:33.057Z,10.17
2022-12-29T20:31:03.292Z,10.18
2022-12-29T20:33:32.803Z,10.17
2022-12-29T20:36:07.483Z,10.19
2022-12-29T20:38:36.836Z,10.19
2022-12-29T20:41:06.518Z,9.90
2022-12-29T20:43:35.941Z,9.74
2022-12-29T20:46:06.215Z,9.85
2022-12-29T20:48:35.559Z,9.96
2022-12-29T20:51:06.760Z,9.94
2022-12-29T20:53:36.176Z,9.97
2022-12-29T20:56:06.753Z,9.91
2022-12-29T20:58:52.493Z,10.03
2022-12-29T21:01:26.253Z,10.02
2022-12-29T21:03:55.527Z,10.06
2022-12-29T21:06:26.608Z,9.90
2022-12-29T21:08:55.929Z,10.05
2022-12-29T21:11:25.615Z,10.00
2022-12-29T21:13:57.172Z,9.90
2022-12-29T21:16:29.003Z,9.71
2022-12-29T21:18:58.343Z,9.89
2022-12-29T21:21:29.349Z,9.99
2022-12-29T21:24:05.904Z,9.96
2022-12-29T21:26:35.926Z,9.97
2022-12-29T21:29:05.202Z,9.94
2022-12-29T21:31:35.507Z,9.89
2022-12-29T21:34:05.932Z,9.74
2022-12-29T21:36:36.991Z,9.70
2022-12-29T21:39:06.225Z,9.64
2022-12-29T21:41:35.751Z,9.90
2022-12-29T21:44:22.084Z,9.97
2022-12-29T21:46:51.685Z,9.65
2022-12-29T21:49:21.652Z,9.48
2022-12-29T21:51:54.093Z,9.54
2022-12-29T21:54:41.679Z,9.46
2022-12-29T21:57:15.474Z,9.42
2022-12-29T22:00:05.753Z,9.37
2022-12-29T22:02:52.866Z,9.28
2022-12-29T22:05:39.642Z,9.18
2022-12-29T22:08:27.719Z,9.31
2022-12-29T22:11:14.294Z,9.29
2022-12-29T22:13:43.864Z,9.35
2022-12-29T22:16:13.497Z,9.33
2022-12-29T22:18:43.137Z,9.46
2022-12-29T22:21:12.430Z,9.46
2022-12-29T22:23:43.555Z,9.53
2022-12-29T22:26:14.266Z,9.45
2022-12-29T22:28:46.170Z,9.44
2022-12-29T22:31:25.222Z,9.42
2022-12-29T22:33:56.058Z,9.38
2022-12-29T22:36:25.514Z,9.45
2022-12-29T22:38:56.575Z,9.45
2022-12-29T22:41:25.932Z,9.46
2022-12-29T22:43:56.176Z,9.45
2022-12-29T22:46:25.514Z,9.58
2022-12-29T22:48:55.130Z,9.54
2022-12-29T22:51:24.325Z,9.55
2022-12-29T22:53:53.913Z,9.53
2022-12-29T22:56:24.594Z,9.54
2022-12-29T22:58:54.253Z,9.51
2022-12-29T23:01:23.700Z,9.50
2022-12-29T23:03:53.935Z,9.45
2022-12-29T23:06:30.392Z,9.60
2022-12-29T23:09:00.941Z,9.49
2022-12-29T23:11:31.580Z,9.56
2022-12-29T23:14:01.192Z,9.55
2022-12-29T23:16:30.495Z,9.52
2022-12-29T23:19:00.203Z,9.60
2022-12-29T23:21:29.403Z,9.53
2022-12-29T23:24:04.225Z,9.74
2022-12-29T23:26:35.853Z,9.62
2022-12-29T23:29:06.066Z,9.62
2022-12-29T23:31:35.388Z,9.57
2022-12-29T23:34:05.789Z,9.65
2022-12-29T23:36:35.017Z,9.72
2022-12-29T23:39:04.896Z,9.62
2022-12-29T23:41:35.569Z,9.42
2022-12-29T23:44:05.345Z,9.51
2022-12-29T23:46:35.666Z,9.44
2022-12-29T23:49:05.324Z,9.32
2022-12-29T23:51:34.616Z,9.49
2022-12-29T23:54:04.419Z,9.34
2022-12-29T23:56:33.619Z,9.35
2022-12-29T23:59:06.233Z,9.35
